CheckWX is a tool to help pilots better visualize weather data.  It is not intended as a substitute for an official pre-flight weather briefing.

05:14:30 UTC

PAMC TAF
Mc Grath Airport
Mcgrath, Alaska, USA
PAMC 232328Z 2400/2424 VRB04KT P6SM FEW050 SCT100 BKN200

Feb-24@
00:00 UTC

Feb-24 @ 00:00 UTC

Feb-25@
00:00 UTC

Feb-25 @ 00:00 UTC

PAMC 232328Z 2400/2424 VRB04KT P6SM FEW050 SCT100 BKN200
Wind
  • Variable at 4 KTS
Cloud Levels
  • Few at 5,000' AGL
  • Scattered at 10,000' AGL
  • Broken at 20,000' AGL